sensor_id;sensor_type;location;lat;lon;timestamp;pressure;altitude;pressure_sealevel;temperature;humidity
83104;BME280;72975;48.134;11.630;2024-03-29T10:15:09;93998.78;;;16.37;45.59
83104;BME280;72975;48.134;11.630;2024-03-29T10:17:45;93992.28;;;17.06;37.69
83104;BME280;72975;48.134;11.630;2024-03-29T10:20:20;93998.22;;;17.19;34.66
83104;BME280;72975;48.134;11.630;2024-03-29T10:22:50;93990.75;;;17.05;34.94
83104;BME280;72975;48.134;11.630;2024-03-29T10:25:19;93983.50;;;17.18;34.61
83104;BME280;72975;48.134;11.630;2024-03-29T10:27:52;93985.19;;;17.26;35.02
83104;BME280;72975;48.134;11.630;2024-03-29T10:30:27;93983.00;;;17.28;34.03
83104;BME280;72975;48.134;11.630;2024-03-29T10:33:00;93978.06;;;17.11;34.40
83104;BME280;72975;48.134;11.630;2024-03-29T10:35:34;93980.69;;;17.27;34.03
83104;BME280;72975;48.134;11.630;2024-03-29T10:38:04;93979.47;;;17.40;33.53
83104;BME280;72975;48.134;11.630;2024-03-29T10:40:42;93977.63;;;17.25;34.26
83104;BME280;72975;48.134;11.630;2024-03-29T10:43:12;93976.47;;;17.41;34.31
83104;BME280;72975;48.134;11.630;2024-03-29T10:45:54;93971.47;;;17.52;33.98
83104;BME280;72975;48.134;11.630;2024-03-29T10:48:33;93954.41;;;17.65;34.45
83104;BME280;72975;48.134;11.630;2024-03-29T10:51:14;93951.31;;;17.79;34.42
83104;BME280;72975;48.134;11.630;2024-03-29T10:54:08;93952.38;;;17.94;33.85
83104;BME280;72975;48.134;11.630;2024-03-29T10:56:36;93945.06;;;18.26;33.41
83104;BME280;72975;48.134;11.630;2024-03-29T10:59:20;93945.09;;;18.48;32.47
83104;BME280;72975;48.134;11.630;2024-03-29T11:01:56;93948.81;;;18.67;32.63
83104;BME280;72975;48.134;11.630;2024-03-29T11:04:34;93949.84;;;18.85;32.21
83104;BME280;72975;48.134;11.630;2024-03-29T11:07:19;93940.66;;;18.75;32.29
83104;BME280;72975;48.134;11.630;2024-03-29T11:09:58;93937.47;;;18.89;32.21
83104;BME280;72975;48.134;11.630;2024-03-29T11:12:35;93928.69;;;18.81;32.25
83104;BME280;72975;48.134;11.630;2024-03-29T11:15:28;93936.22;;;18.83;31.14
83104;BME280;72975;48.134;11.630;2024-03-29T11:17:59;93929.66;;;18.73;31.39
83104;BME280;72975;48.134;11.630;2024-03-29T11:20:29;93935.94;;;18.88;31.55
83104;BME280;72975;48.134;11.630;2024-03-29T11:23:14;93936.78;;;18.69;31.55
83104;BME280;72975;48.134;11.630;2024-03-29T11:25:45;93938.41;;;18.77;31.51
83104;BME280;72975;48.134;11.630;2024-03-29T11:28:24;93946.59;;;18.91;30.83
83104;BME280;72975;48.134;11.630;2024-03-29T11:30:55;93938.41;;;19.00;31.04
83104;BME280;72975;48.134;11.630;2024-03-29T11:35:57;93931.00;;;18.86;31.12
83104;BME280;72975;48.134;11.630;2024-03-29T11:38:34;93932.13;;;18.85;31.14
83104;BME280;72975;48.134;11.630;2024-03-29T11:41:27;93927.75;;;18.96;31.24
83104;BME280;72975;48.134;11.630;2024-03-29T11:43:57;93929.38;;;19.05;31.38
83104;BME280;72975;48.134;11.630;2024-03-29T11:46:43;93931.50;;;19.18;30.92
83104;BME280;72975;48.134;11.630;2024-03-29T11:49:15;93936.81;;;18.95;32.17
83104;BME280;72975;48.134;11.630;2024-03-29T11:51:42;93924.78;;;19.24;30.49
83104;BME280;72975;48.134;11.630;2024-03-29T11:54:09;93911.44;;;19.17;30.85
83104;BME280;72975;48.134;11.630;2024-03-29T11:56:39;93921.38;;;19.24;30.19
83104;BME280;72975;48.134;11.630;2024-03-29T11:59:05;93932.25;;;19.19;30.25
83104;BME280;72975;48.134;11.630;2024-03-29T12:01:33;93926.66;;;19.24;29.81
83104;BME280;72975;48.134;11.630;2024-03-29T12:04:03;93919.28;;;19.10;30.21
83104;BME280;72975;48.134;11.630;2024-03-29T12:06:30;93921.63;;;19.15;30.80
83104;BME280;72975;48.134;11.630;2024-03-29T12:08:56;93923.50;;;19.15;31.14
83104;BME280;72975;48.134;11.630;2024-03-29T12:11:24;93917.28;;;19.30;30.09
83104;BME280;72975;48.134;11.630;2024-03-29T12:13:53;93920.97;;;19.48;30.06
83104;BME280;72975;48.134;11.630;2024-03-29T12:16:20;93917.81;;;19.65;29.75
83104;BME280;72975;48.134;11.630;2024-03-29T12:18:47;93911.78;;;20.02;29.82
83104;BME280;72975;48.134;11.630;2024-03-29T12:21:15;93906.53;;;20.39;28.84
83104;BME280;72975;48.134;11.630;2024-03-29T12:23:47;93903.56;;;20.44;28.74
83104;BME280;72975;48.134;11.630;2024-03-29T12:26:17;93902.31;;;20.78;28.41
83104;BME280;72975;48.134;11.630;2024-03-29T12:28:49;93897.63;;;21.05;27.32
83104;BME280;72975;48.134;11.630;2024-03-29T12:31:19;93886.19;;;20.98;27.04
83104;BME280;72975;48.134;11.630;2024-03-29T12:34:00;93877.34;;;21.34;26.77
83104;BME280;72975;48.134;11.630;2024-03-29T12:36:32;93884.69;;;21.66;26.02
83104;BME280;72975;48.134;11.630;2024-03-29T12:39:04;93875.81;;;21.30;26.94
83104;BME280;72975;48.134;11.630;2024-03-29T12:41:32;93878.78;;;22.01;26.50
83104;BME280;72975;48.134;11.630;2024-03-29T12:44:03;93883.00;;;22.19;25.46
83104;BME280;72975;48.134;11.630;2024-03-29T12:46:29;93872.78;;;22.29;25.59
83104;BME280;72975;48.134;11.630;2024-03-29T12:49:11;93880.03;;;22.56;25.19
83104;BME280;72975;48.134;11.630;2024-03-29T12:51:40;93865.56;;;22.33;24.96
83104;BME280;72975;48.134;11.630;2024-03-29T12:54:16;93848.09;;;22.25;24.97
83104;BME280;72975;48.134;11.630;2024-03-29T12:56:55;93865.56;;;22.33;24.94
83104;BME280;72975;48.134;11.630;2024-03-29T12:59:23;93856.09;;;22.35;24.81
83104;BME280;72975;48.134;11.630;2024-03-29T13:01:54;93841.66;;;22.54;25.30
83104;BME280;72975;48.134;11.630;2024-03-29T13:04:23;93851.91;;;22.63;24.91
83104;BME280;72975;48.134;11.630;2024-03-29T13:06:49;93837.09;;;22.62;24.52
83104;BME280;72975;48.134;11.630;2024-03-29T13:09:19;93830.28;;;22.89;24.13
83104;BME280;72975;48.134;11.630;2024-03-29T13:11:55;93843.59;;;22.82;24.11
83104;BME280;72975;48.134;11.630;2024-03-29T13:14:26;93838.63;;;22.84;24.18
83104;BME280;72975;48.134;11.630;2024-03-29T13:16:58;93843.19;;;22.83;23.97
83104;BME280;72975;48.134;11.630;2024-03-29T13:19:25;93837.88;;;22.83;24.17
83104;BME280;72975;48.134;11.630;2024-03-29T13:21:56;93838.25;;;22.64;23.98
83104;BME280;72975;48.134;11.630;2024-03-29T13:24:33;93807.88;;;22.37;23.48
83104;BME280;72975;48.134;11.630;2024-03-29T13:27:02;93853.44;;;22.74;23.91
83104;BME280;72975;48.134;11.630;2024-03-29T13:29:33;93837.84;;;23.08;23.69
83104;BME280;72975;48.134;11.630;2024-03-29T13:32:01;93833.28;;;23.09;23.50
83104;BME280;72975;48.134;11.630;2024-03-29T13:34:30;93824.97;;;22.89;22.80
83104;BME280;72975;48.134;11.630;2024-03-29T13:37:01;93815.34;;;23.34;22.80
83104;BME280;72975;48.134;11.630;2024-03-29T13:39:33;93818.81;;;23.24;23.33
83104;BME280;72975;48.134;11.630;2024-03-29T13:42:03;93818.88;;;22.85;23.63
83104;BME280;72975;48.134;11.630;2024-03-29T13:44:32;93813.56;;;22.60;23.33
83104;BME280;72975;48.134;11.630;2024-03-29T13:47:03;93809.38;;;22.52;23.10
83104;BME280;72975;48.134;11.630;2024-03-29T13:49:34;93812.81;;;22.60;23.57
83104;BME280;72975;48.134;11.630;2024-03-29T13:52:01;93820.78;;;22.81;23.83
83104;BME280;72975;48.134;11.630;2024-03-29T13:54:31;93810.50;;;22.62;24.01
83104;BME280;72975;48.134;11.630;2024-03-29T13:57:01;93809.75;;;22.54;23.61
83104;BME280;72975;48.134;11.630;2024-03-29T13:59:35;93820.00;;;22.45;24.13
83104;BME280;72975;48.134;11.630;2024-03-29T14:02:16;93815.44;;;22.24;23.40
83104;BME280;72975;48.134;11.630;2024-03-29T14:04:48;93818.09;;;22.20;24.10
83104;BME280;72975;48.134;11.630;2024-03-29T14:07:21;93811.25;;;22.09;23.91
83104;BME280;72975;48.134;11.630;2024-03-29T14:09:51;93812.38;;;22.01;24.29
83104;BME280;72975;48.134;11.630;2024-03-29T14:12:19;93817.31;;;22.20;24.21
83104;BME280;72975;48.134;11.630;2024-03-29T14:14:56;93821.09;;;22.08;24.39
83104;BME280;72975;48.134;11.630;2024-03-29T14:17:25;93815.03;;;22.01;24.63
83104;BME280;72975;48.134;11.630;2024-03-29T14:19:55;93811.19;;;21.95;25.06
83104;BME280;72975;48.134;11.630;2024-03-29T14:22:27;93810.81;;;21.93;24.92
83104;BME280;72975;48.134;11.630;2024-03-29T14:25:05;93803.97;;;21.88;24.92
83104;BME280;72975;48.134;11.630;2024-03-29T14:27:39;93806.25;;;21.97;24.65
83104;BME280;72975;48.134;11.630;2024-03-29T14:30:14;93808.50;;;21.88;24.26
83104;BME280;72975;48.134;11.630;2024-03-29T14:32:44;93822.16;;;21.72;24.38
83104;BME280;72975;48.134;11.630;2024-03-29T14:35:14;93809.59;;;21.65;24.35
83104;BME280;72975;48.134;11.630;2024-03-29T14:37:45;93824.00;;;21.64;24.37
83104;BME280;72975;48.134;11.630;2024-03-29T14:40:12;93806.13;;;21.54;24.57
83104;BME280;72975;48.134;11.630;2024-03-29T14:42:44;93807.22;;;21.42;24.89
83104;BME280;72975;48.134;11.630;2024-03-29T14:45:13;93823.91;;;21.39;25.06
83104;BME280;72975;48.134;11.630;2024-03-29T14:47:40;93809.38;;;21.16;25.29
83104;BME280;72975;48.134;11.630;2024-03-29T14:50:10;93811.72;;;21.24;25.71
83104;BME280;72975;48.134;11.630;2024-03-29T14:52:42;93810.25;;;21.30;25.48
83104;BME280;72975;48.134;11.630;2024-03-29T14:55:09;93810.19;;;21.20;25.70
83104;BME280;72975;48.134;11.630;2024-03-29T14:57:38;93805.66;;;21.31;25.96
83104;BME280;72975;48.134;11.630;2024-03-29T15:00:06;93814.75;;;21.26;25.80
83104;BME280;72975;48.134;11.630;2024-03-29T15:02:36;93817.03;;;21.31;25.52
83104;BME280;72975;48.134;11.630;2024-03-29T15:05:04;93815.84;;;21.22;25.84
83104;BME280;72975;48.134;11.630;2024-03-29T15:07:34;93829.13;;;21.18;25.30
83104;BME280;72975;48.134;11.630;2024-03-29T15:10:01;93834.06;;;21.23;25.29
83104;BME280;72975;48.134;11.630;2024-03-29T15:12:43;93822.97;;;21.10;25.57
83104;BME280;72975;48.134;11.630;2024-03-29T15:15:12;93826.38;;;21.11;25.68
83104;BME280;72975;48.134;11.630;2024-03-29T15:17:39;93825.00;;;21.31;26.02
83104;BME280;72975;48.134;11.630;2024-03-29T15:20:16;93839.75;;;21.25;26.18
83104;BME280;72975;48.134;11.630;2024-03-29T15:22:56;93830.59;;;21.16;26.11
83104;BME280;72975;48.134;11.630;2024-03-29T15:25:37;93836.34;;;21.25;26.00
83104;BME280;72975;48.134;11.630;2024-03-29T15:28:04;93839.75;;;21.18;26.83
83104;BME280;72975;48.134;11.630;2024-03-29T15:30:42;93835.19;;;21.19;26.30
83104;BME280;72975;48.134;11.630;2024-03-29T15:33:18;93843.81;;;21.12;26.74
83104;BME280;72975;48.134;11.630;2024-03-29T15:35:50;93848.25;;;20.90;26.86
83104;BME280;72975;48.134;11.630;2024-03-29T15:38:16;93850.91;;;20.90;26.65
83104;BME280;72975;48.134;11.630;2024-03-29T15:40:52;93862.94;;;20.81;26.35
83104;BME280;72975;48.134;11.630;2024-03-29T15:43:26;93848.84;;;20.69;26.68
83104;BME280;72975;48.134;11.630;2024-03-29T15:45:57;93855.63;;;20.63;27.12
83104;BME280;72975;48.134;11.630;2024-03-29T15:48:33;93860.41;;;20.47;27.33
83104;BME280;72975;48.134;11.630;2024-03-29T15:51:12;93859.25;;;20.45;27.65
83104;BME280;72975;48.134;11.630;2024-03-29T15:53:41;93866.41;;;20.40;27.95
83104;BME280;72975;48.134;11.630;2024-03-29T15:56:12;93867.91;;;20.38;28.07
83104;BME280;72975;48.134;11.630;2024-03-29T15:58:48;93861.75;;;20.30;27.98
83104;BME280;72975;48.134;11.630;2024-03-29T16:01:15;93874.59;;;20.28;28.02
83104;BME280;72975;48.134;11.630;2024-03-29T16:03:46;93872.31;;;20.27;28.07
83104;BME280;72975;48.134;11.630;2024-03-29T16:06:16;93874.09;;;20.16;27.68
83104;BME280;72975;48.134;11.630;2024-03-29T16:08:47;93827.69;;;19.92;27.54
83104;BME280;72975;48.134;11.630;2024-03-29T16:11:17;93873.69;;;20.10;27.22
83104;BME280;72975;48.134;11.630;2024-03-29T16:13:43;93850.84;;;19.98;27.35
83104;BME280;72975;48.134;11.630;2024-03-29T16:16:14;93864.88;;;20.02;27.79
83104;BME280;72975;48.134;11.630;2024-03-29T16:18:46;93864.47;;;19.97;28.27
83104;BME280;72975;48.134;11.630;2024-03-29T16:21:15;93875.81;;;19.97;27.71
83104;BME280;72975;48.134;11.630;2024-03-29T16:23:45;93883.53;;;19.80;27.50
83104;BME280;72975;48.134;11.630;2024-03-29T16:26:15;93874.41;;;19.74;27.99
83104;BME280;72975;48.134;11.630;2024-03-29T16:28:44;93871.69;;;19.66;28.29
83104;BME280;72975;48.134;11.630;2024-03-29T16:31:14;93873.13;;;19.60;27.95
83104;BME280;72975;48.134;11.630;2024-03-29T16:33:44;93859.00;;;19.49;28.10
83104;BME280;72975;48.134;11.630;2024-03-29T16:36:17;93861.59;;;19.46;28.03
83104;BME280;72975;48.134;11.630;2024-03-29T16:38:46;93859.59;;;19.39;27.78
83104;BME280;72975;48.134;11.630;2024-03-29T16:41:18;93873.16;;;19.34;27.81
83104;BME280;72975;48.134;11.630;2024-03-29T16:43:56;93867.81;;;19.30;27.94
83104;BME280;72975;48.134;11.630;2024-03-29T16:46:23;93859.44;;;19.25;27.78
83104;BME280;72975;48.134;11.630;2024-03-29T16:48:54;93870.72;;;19.22;27.94
83104;BME280;72975;48.134;11.630;2024-03-29T16:51:21;93873.66;;;19.17;27.59
83104;BME280;72975;48.134;11.630;2024-03-29T16:53:51;93868.28;;;19.10;27.77
83104;BME280;72975;48.134;11.630;2024-03-29T16:56:20;93872.75;;;19.06;28.04
83104;BME280;72975;48.134;11.630;2024-03-29T16:58:47;93873.88;;;19.05;28.01
83104;BME280;72975;48.134;11.630;2024-03-29T17:01:19;93872.66;;;18.99;28.47
83104;BME280;72975;48.134;11.630;2024-03-29T17:03:46;93867.28;;;18.91;28.43
83104;BME280;72975;48.134;11.630;2024-03-29T17:06:13;93869.19;;;18.94;28.60
83104;BME280;72975;48.134;11.630;2024-03-29T17:08:42;93871.72;;;18.87;28.76
83104;BME280;72975;48.134;11.630;2024-03-29T17:11:19;93869.78;;;18.84;29.02
83104;BME280;72975;48.134;11.630;2024-03-29T17:13:48;93863.66;;;18.77;29.39
83104;BME280;72975;48.134;11.630;2024-03-29T17:16:18;93875.75;;;18.78;28.90
83104;BME280;72975;48.134;11.630;2024-03-29T17:18:45;93865.47;;;18.73;29.51
83104;BME280;72975;48.134;11.630;2024-03-29T17:21:15;93874.81;;;18.67;29.83
83104;BME280;72975;48.134;11.630;2024-03-29T17:23:47;93864.06;;;18.56;29.92
83104;BME280;72975;48.134;11.630;2024-03-29T17:26:21;93870.88;;;18.57;29.50
83104;BME280;72975;48.134;11.630;2024-03-29T17:28:53;93873.84;;;18.55;29.20
83104;BME280;72975;48.134;11.630;2024-03-29T17:31:24;93872.31;;;18.54;29.08
83104;BME280;72975;48.134;11.630;2024-03-29T17:34:03;93877.19;;;18.52;28.98
83104;BME280;72975;48.134;11.630;2024-03-29T17:36:45;93879.81;;;18.49;29.28
83104;BME280;72975;48.134;11.630;2024-03-29T17:39:30;93880.19;;;18.51;29.07
83104;BME280;72975;48.134;11.630;2024-03-29T17:42:01;93883.91;;;18.46;29.37
83104;BME280;72975;48.134;11.630;2024-03-29T17:44:37;93896.28;;;18.42;29.99
83104;BME280;72975;48.134;11.630;2024-03-29T17:47:13;93888.88;;;18.29;30.47
83104;BME280;72975;48.134;11.630;2024-03-29T17:49:41;93891.31;;;18.18;31.11
83104;BME280;72975;48.134;11.630;2024-03-29T17:52:28;93891.28;;;18.14;30.91
83104;BME280;72975;48.134;11.630;2024-03-29T17:55:03;93903.19;;;18.05;31.22
83104;BME280;72975;48.134;11.630;2024-03-29T17:57:48;93897.91;;;18.05;30.97
83104;BME280;72975;48.134;11.630;2024-03-29T18:00:24;93907.88;;;17.96;31.30
83104;BME280;72975;48.134;11.630;2024-03-29T18:02:59;93910.31;;;17.85;31.31
83104;BME280;72975;48.134;11.630;2024-03-29T18:05:26;93915.75;;;17.92;31.17
83104;BME280;72975;48.134;11.630;2024-03-29T18:07:53;93911.09;;;17.85;31.36
83104;BME280;72975;48.134;11.630;2024-03-29T18:10:21;93916.16;;;17.75;31.50
83104;BME280;72975;48.134;11.630;2024-03-29T18:12:51;93907.00;;;17.69;31.46
83104;BME280;72975;48.134;11.630;2024-03-29T18:15:25;93924.22;;;17.63;31.31
83104;BME280;72975;48.134;11.630;2024-03-29T18:17:55;93925.31;;;17.62;31.29
83104;BME280;72975;48.134;11.630;2024-03-29T18:20:31;93931.19;;;17.55;31.36
83104;BME280;72975;48.134;11.630;2024-03-29T18:23:02;93932.56;;;17.49;31.41
83104;BME280;72975;48.134;11.630;2024-03-29T18:28:44;93932.91;;;17.47;30.99
83104;BME280;72975;48.134;11.630;2024-03-29T18:31:21;93926.78;;;17.43;31.12
83104;BME280;72975;48.134;11.630;2024-03-29T18:33:47;93931.13;;;17.51;30.50
83104;BME280;72975;48.134;11.630;2024-03-29T18:36:25;93931.94;;;17.36;30.91
83104;BME280;72975;48.134;11.630;2024-03-29T18:38:52;93933.88;;;17.39;31.05
83104;BME280;72975;48.134;11.630;2024-03-29T18:41:21;93934.72;;;17.43;30.53
83104;BME280;72975;48.134;11.630;2024-03-29T18:43:50;93940.47;;;17.30;31.19
83104;BME280;72975;48.134;11.630;2024-03-29T18:46:17;93943.44;;;17.28;31.27
83104;BME280;72975;48.134;11.630;2024-03-29T18:48:44;93938.41;;;17.23;31.44
83104;BME280;72975;48.134;11.630;2024-03-29T18:51:14;93951.44;;;17.16;31.53
83104;BME280;72975;48.134;11.630;2024-03-29T18:53:41;93945.59;;;17.07;31.63
83104;BME280;72975;48.134;11.630;2024-03-29T18:56:10;93957.59;;;17.04;31.60
83104;BME280;72975;48.134;11.630;2024-03-29T18:58:37;93952.91;;;16.98;31.92
83104;BME280;72975;48.134;11.630;2024-03-29T19:01:06;93952.56;;;16.99;31.89
83104;BME280;72975;48.134;11.630;2024-03-29T19:03:36;93960.31;;;16.92;31.93
83104;BME280;72975;48.134;11.630;2024-03-29T19:06:04;93954.53;;;16.87;31.87
83104;BME280;72975;48.134;11.630;2024-03-29T19:08:33;93963.22;;;16.87;31.86
83104;BME280;72975;48.134;11.630;2024-03-29T19:11:02;93967.09;;;16.93;31.26
83104;BME280;72975;48.134;11.630;2024-03-29T19:13:29;93969.91;;;16.85;31.44
83104;BME280;72975;48.134;11.630;2024-03-29T19:15:56;93959.88;;;16.90;31.37
83104;BME280;72975;48.134;11.630;2024-03-29T19:18:23;93970.75;;;16.89;31.17
83104;BME280;72975;48.134;11.630;2024-03-29T19:20:50;93977.81;;;16.85;31.33
83104;BME280;72975;48.134;11.630;2024-03-29T19:23:16;93977.41;;;16.83;31.20
83104;BME280;72975;48.134;11.630;2024-03-29T19:25:43;93978.94;;;16.84;31.15
83104;BME280;72975;48.134;11.630;2024-03-29T19:28:10;93973.81;;;16.91;30.87
83104;BME280;72975;48.134;11.630;2024-03-29T19:30:37;93984.19;;;16.84;31.02
83104;BME280;72975;48.134;11.630;2024-03-29T19:33:04;93985.53;;;16.77;31.40
83104;BME280;72975;48.134;11.630;2024-03-29T19:35:31;93992.28;;;16.75;31.61
83104;BME280;72975;48.134;11.630;2024-03-29T19:37:59;93988.53;;;16.76;31.61
83104;BME280;72975;48.134;11.630;2024-03-29T19:40:26;93995.16;;;16.70;31.48
83104;BME280;72975;48.134;11.630;2024-03-29T19:42:53;93998.81;;;16.65;31.68
83104;BME280;72975;48.134;11.630;2024-03-29T19:45:20;94004.63;;;16.59;32.01
83104;BME280;72975;48.134;11.630;2024-03-29T19:47:47;94003.41;;;16.56;32.21
83104;BME280;72975;48.134;11.630;2024-03-29T19:50:23;94007.22;;;16.43;32.57
83104;BME280;72975;48.134;11.630;2024-03-29T19:52:50;94014.25;;;16.39;32.48
83104;BME280;72975;48.134;11.630;2024-03-29T19:55:17;94010.75;;;16.35;32.72
83104;BME280;72975;48.134;11.630;2024-03-29T19:57:46;94014.97;;;16.24;33.10
83104;BME280;72975;48.134;11.630;2024-03-29T20:00:13;94017.28;;;16.25;33.09
83104;BME280;72975;48.134;11.630;2024-03-29T20:02:40;94021.69;;;16.21;33.35
83104;BME280;72975;48.134;11.630;2024-03-29T20:05:10;94025.09;;;16.22;32.94
83104;BME280;72975;48.134;11.630;2024-03-29T20:07:37;94023.13;;;16.19;32.77
83104;BME280;72975;48.134;11.630;2024-03-29T20:10:04;94024.44;;;16.13;33.08
83104;BME280;72975;48.134;11.630;2024-03-29T20:12:34;94023.47;;;16.17;33.05
83104;BME280;72975;48.134;11.630;2024-03-29T20:15:01;94021.47;;;16.14;33.03
83104;BME280;72975;48.134;11.630;2024-03-29T20:17:29;94016.56;;;16.13;33.02
83104;BME280;72975;48.134;11.630;2024-03-29T20:19:56;94011.28;;;16.13;32.89
83104;BME280;72975;48.134;11.630;2024-03-29T20:22:28;94020.84;;;16.05;32.94
83104;BME280;72975;48.134;11.630;2024-03-29T20:24:55;94024.50;;;16.00;33.19
83104;BME280;72975;48.134;11.630;2024-03-29T20:27:24;94020.22;;;15.96;33.32
83104;BME280;72975;48.134;11.630;2024-03-29T20:29:51;94023.19;;;15.94;33.50
83104;BME280;72975;48.134;11.630;2024-03-29T20:32:21;94018.59;;;15.91;33.54
83104;BME280;72975;48.134;11.630;2024-03-29T20:34:48;94019.78;;;15.94;33.30
83104;BME280;72975;48.134;11.630;2024-03-29T20:37:19;94024.72;;;15.95;33.38
83104;BME280;72975;48.134;11.630;2024-03-29T20:39:51;94025.59;;;15.99;33.20
83104;BME280;72975;48.134;11.630;2024-03-29T20:42:18;94022.31;;;15.90;33.37
83104;BME280;72975;48.134;11.630;2024-03-29T20:44:49;94038.47;;;15.89;33.54
83104;BME280;72975;48.134;11.630;2024-03-29T20:47:16;94023.09;;;15.91;33.24
83104;BME280;72975;48.134;11.630;2024-03-29T20:49:49;94019.34;;;15.92;33.08
83104;BME280;72975;48.134;11.630;2024-03-29T20:52:16;94026.06;;;15.89;33.23
83104;BME280;72975;48.134;11.630;2024-03-29T20:54:45;94022.66;;;15.89;33.38
83104;BME280;72975;48.134;11.630;2024-03-29T20:57:15;94029.53;;;15.93;32.65
83104;BME280;72975;48.134;11.630;2024-03-29T20:59:45;94026.84;;;15.90;33.16
83104;BME280;72975;48.134;11.630;2024-03-29T21:02:12;94034.94;;;15.85;33.05
83104;BME280;72975;48.134;11.630;2024-03-29T21:04:58;94021.03;;;15.84;33.32
83104;BME280;72975;48.134;11.630;2024-03-29T21:07:43;94024.22;;;15.90;33.21
83104;BME280;72975;48.134;11.630;2024-03-29T21:10:12;94022.56;;;15.85;33.33
83104;BME280;72975;48.134;11.630;2024-03-29T21:12:42;94034.06;;;15.81;33.28
83104;BME280;72975;48.134;11.630;2024-03-29T21:15:09;94033.66;;;15.79;33.25
83104;BME280;72975;48.134;11.630;2024-03-29T21:17:36;94029.38;;;15.74;33.38
83104;BME280;72975;48.134;11.630;2024-03-29T21:20:07;94034.09;;;15.68;33.41
83104;BME280;72975;48.134;11.630;2024-03-29T21:22:40;94036.06;;;15.72;33.92
83104;BME280;72975;48.134;11.630;2024-03-29T21:25:08;94033.22;;;15.64;33.88
83104;BME280;72975;48.134;11.630;2024-03-29T21:27:37;94040.03;;;15.65;33.96
83104;BME280;72975;48.134;11.630;2024-03-29T21:30:10;94040.56;;;15.59;33.89
83104;BME280;72975;48.134;11.630;2024-03-29T21:32:44;94038.38;;;15.61;34.20
83104;BME280;72975;48.134;11.630;2024-03-29T21:35:11;94037.59;;;15.60;33.91
83104;BME280;72975;48.134;11.630;2024-03-29T21:37:38;94039.38;;;15.56;34.04
83104;BME280;72975;48.134;11.630;2024-03-29T21:40:08;94037.94;;;15.59;34.21
83104;BME280;72975;48.134;11.630;2024-03-29T21:42:36;94035.22;;;15.55;33.93
83104;BME280;72975;48.134;11.630;2024-03-29T21:45:03;94034.19;;;15.48;34.34
83104;BME280;72975;48.134;11.630;2024-03-29T21:47:39;94042.34;;;15.55;34.05
83104;BME280;72975;48.134;11.630;2024-03-29T21:50:06;94053.91;;;15.54;34.26
83104;BME280;72975;48.134;11.630;2024-03-29T21:52:33;94042.06;;;15.48;34.29
83104;BME280;72975;48.134;11.630;2024-03-29T21:55:02;94048.44;;;15.47;34.13
83104;BME280;72975;48.134;11.630;2024-03-29T21:57:30;94047.25;;;15.44;33.79
83104;BME280;72975;48.134;11.630;2024-03-29T22:00:02;93996.00;;;15.14;33.88
83104;BME280;72975;48.134;11.630;2024-03-29T22:02:30;94054.44;;;15.47;33.85
83104;BME280;72975;48.134;11.630;2024-03-29T22:04:58;94058.19;;;15.46;33.76
83104;BME280;72975;48.134;11.630;2024-03-29T22:07:25;94060.06;;;15.33;34.26
83104;BME280;72975;48.134;11.630;2024-03-29T22:09:53;94067.38;;;15.28;34.15
83104;BME280;72975;48.134;11.630;2024-03-29T22:12:19;94060.06;;;15.33;34.10
83104;BME280;72975;48.134;11.630;2024-03-29T22:14:46;94074.41;;;15.24;34.43
83104;BME280;72975;48.134;11.630;2024-03-29T22:17:13;94067.06;;;15.29;34.03
83104;BME280;72975;48.134;11.630;2024-03-29T22:19:40;94069.38;;;15.43;33.11
83104;BME280;72975;48.134;11.630;2024-03-29T22:22:09;94061.19;;;15.57;32.55
83104;BME280;72975;48.134;11.630;2024-03-29T22:24:42;94057.09;;;15.47;33.37
83104;BME280;72975;48.134;11.630;2024-03-29T22:27:11;94072.53;;;15.49;33.18
83104;BME280;72975;48.134;11.630;2024-03-29T22:29:41;94059.50;;;15.52;32.70
83104;BME280;72975;48.134;11.630;2024-03-29T22:32:11;94061.38;;;15.40;33.42
83104;BME280;72975;48.134;11.630;2024-03-29T22:34:40;94059.94;;;15.42;33.49
83104;BME280;72975;48.134;11.630;2024-03-29T22:37:08;94065.75;;;15.36;33.68
83104;BME280;72975;48.134;11.630;2024-03-29T22:39:35;94065.19;;;15.42;33.31
83104;BME280;72975;48.134;11.630;2024-03-29T22:42:02;94069.91;;;15.37;33.67
83104;BME280;72975;48.134;11.630;2024-03-29T22:44:30;94055.00;;;15.41;33.52
83104;BME280;72975;48.134;11.630;2024-03-29T22:46:57;94056.53;;;15.42;33.19
83104;BME280;72975;48.134;11.630;2024-03-29T22:49:24;94062.91;;;15.53;32.56
83104;BME280;72975;48.134;11.630;2024-03-29T22:51:51;94046.81;;;15.54;32.62
83104;BME280;72975;48.134;11.630;2024-03-29T22:54:17;94060.94;;;15.62;32.52
83104;BME280;72975;48.134;11.630;2024-03-29T22:56:44;94056.47;;;15.62;32.12
83104;BME280;72975;48.134;11.630;2024-03-29T22:59:13;94049.47;;;15.54;32.51
83104;BME280;72975;48.134;11.630;2024-03-29T23:01:41;94057.19;;;15.51;32.73
83104;BME280;72975;48.134;11.630;2024-03-29T23:04:15;94055.78;;;15.53;32.26
83104;BME280;72975;48.134;11.630;2024-03-29T23:06:43;94060.94;;;15.62;31.88
83104;BME280;72975;48.134;11.630;2024-03-29T23:09:09;94054.91;;;15.49;32.59
83104;BME280;72975;48.134;11.630;2024-03-29T23:11:37;94058.28;;;15.38;33.08
83104;BME280;72975;48.134;11.630;2024-03-29T23:14:04;94058.09;;;15.30;33.25
83104;BME280;72975;48.134;11.630;2024-03-29T23:16:30;94046.78;;;15.30;32.99
83104;BME280;72975;48.134;11.630;2024-03-29T23:19:00;94064.31;;;15.38;32.87
83104;BME280;72975;48.134;11.630;2024-03-29T23:21:27;94059.38;;;15.37;32.82
83104;BME280;72975;48.134;11.630;2024-03-29T23:23:54;94067.38;;;15.40;32.65
83104;BME280;72975;48.134;11.630;2024-03-29T23:26:21;94067.94;;;15.33;32.72
83104;BME280;72975;48.134;11.630;2024-03-29T23:28:47;94078.22;;;15.39;32.63